الصفحة الرئيسية
METAR-TAF:

METAR-TAF

مطار :

Gove Peninsula, أستراليا

دائرة عرض: 12-16-12S, خط طول: 136-49-06E, ارتفاع: 62 متر

مراقبة الطقس الحالي

تاريخ ووقت الإصدار 51 دقيقة قبل الساعة 05:30UTC
ريح 10 عقدة من الجنوب/الجنوب الشرقي
درجة الحرارة 31°درجة مئوية
الرطوبة 59%
ضغط 1009 hPa
الرؤية 10 كم أو أكثر
غيوم متفرقة على ارتفاع 3000 قدم

METAR: YPGV 060530Z 16010KT 9999 SCT030 31/22 Q1009

زمن: 15:51 (06:21 UTC)

توقعات

تاريخ ووقت الإصدار 30 دقيقة قبل الساعة 05:51UTC
التوقعات صالحة من06 الساعة 05 UTC إلى 06 الساعة 14 UTC
ريح 12 عقدة من الجنوب الشرقي
الرؤية 10 كم أو أكثر
غيوم متفرقة على ارتفاع 2500 قدم
نظرية الاحتمالات 30% :
مؤقت
من 06 الساعة 09 UTC إلى 06 الساعة 14 UTC
ريح 20 عقدةمن اتجاهات متغيرة تتزايد حتى 35 عقدة
الرؤية: 1000 متر
غيوم مفككة على ارتفاع 1000 قدم
غيوم متفرقة على ارتفاع 2500 قدم, مزنة ركامية.
عاصفة رعدية, مطر

TAF: YPGV 060551Z 0605/0614 14012KT 9999 SCT025 PROB30 TEMPO 0609/0614 VRB20G35KT 1000 TSRA BKN010 SCT025CB

أرصاد الطقس والتوقعات من أكثر من 4000 مطار (تقارير الطقس للمطار METAR والتنبؤ بالطقس بالمطارTAF).

المحطات المتاحة هي النقط الصفراء والحمراء على الخريطة.

حرك المؤشر فوق النقطة لمعرفة اسم المحطة.

ثم انقر لمعرفة أرصاد وتوقعات الطقس.

لتغيير الخارطة: اضغط على الأزرار الخضراء مع رمز الصليب الأسود للتكبير. على الزر الأخضر مع شرطة للتصغير، أو على الأسهم الخضراء للخرائط المجاورة.


METAR-TAF: